createdAt,value
2018-04-30T00:00:00.157Z,56.16
2018-04-30T00:02:25.973Z,56.05
2018-04-30T00:04:51.781Z,55.88
2018-04-30T00:07:17.613Z,55.79
2018-04-30T00:09:43.426Z,55.87
2018-04-30T00:12:09.237Z,56.11
2018-04-30T00:14:35.049Z,56.17
2018-04-30T00:17:00.853Z,56.07
2018-04-30T00:19:26.663Z,56.08
2018-04-30T00:21:52.468Z,56.10
2018-04-30T00:24:18.276Z,56.09
2018-04-30T00:26:44.082Z,56.02
2018-04-30T00:29:09.952Z,55.98
2018-04-30T00:31:35.757Z,56.09
2018-04-30T00:34:01.698Z,56.30
2018-04-30T00:36:27.530Z,56.04
2018-04-30T00:38:54.285Z,56.02
2018-04-30T00:41:20.280Z,56.21
2018-04-30T00:43:46.090Z,56.16
2018-04-30T00:46:12.029Z,56.07
2018-04-30T00:48:37.941Z,55.75
2018-04-30T00:51:03.758Z,56.23
2018-04-30T00:53:29.716Z,56.13
2018-04-30T00:55:55.546Z,56.25
2018-04-30T00:58:21.379Z,56.27
2018-04-30T01:00:47.213Z,56.06
2018-04-30T01:03:13.057Z,56.23
2018-04-30T01:05:38.993Z,56.13
2018-04-30T01:08:04.796Z,56.10
2018-04-30T01:10:30.596Z,56.20
2018-04-30T01:12:56.397Z,56.24
2018-04-30T01:15:22.205Z,56.21
2018-04-30T01:17:48.014Z,56.20
2018-04-30T01:20:13.854Z,56.08
2018-04-30T01:22:39.657Z,56.00
2018-04-30T01:25:05.500Z,56.14
2018-04-30T01:27:31.328Z,56.21
2018-04-30T01:29:57.136Z,56.18
2018-04-30T01:32:22.935Z,56.05
2018-04-30T01:34:48.834Z,55.85
2018-04-30T01:37:14.605Z,56.49
2018-04-30T01:39:40.412Z,56.29
2018-04-30T01:42:06.208Z,56.47
2018-04-30T01:44:32.056Z,56.11
2018-04-30T01:46:57.897Z,56.33
2018-04-30T01:49:23.697Z,56.23
2018-04-30T01:51:49.588Z,56.20
2018-04-30T01:54:15.490Z,56.26
2018-04-30T01:56:41.312Z,56.25
2018-04-30T01:59:07.114Z,56.29
2018-04-30T02:01:32.911Z,56.23
2018-04-30T02:03:58.717Z,56.33
2018-04-30T02:06:24.520Z,56.26
2018-04-30T02:08:50.320Z,56.25
2018-04-30T02:11:17.527Z,56.11
2018-04-30T02:13:44.144Z,56.35
2018-04-30T02:16:09.949Z,56.24
2018-04-30T02:18:35.752Z,56.33
2018-04-30T02:21:02.598Z,56.30
2018-04-30T02:23:29.393Z,56.56
2018-04-30T02:25:55.193Z,56.47
2018-04-30T02:28:21.033Z,56.48
2018-04-30T02:30:46.833Z,56.38
2018-04-30T02:33:12.672Z,56.43
2018-04-30T02:35:38.492Z,56.47
2018-04-30T02:38:04.292Z,56.44
2018-04-30T02:40:30.101Z,56.30
2018-04-30T02:42:55.902Z,56.12
2018-04-30T02:45:22.528Z,56.29
2018-04-30T02:47:48.327Z,56.48
2018-04-30T02:50:14.222Z,56.54
2018-04-30T02:52:40.844Z,56.46
2018-04-30T02:55:07.520Z,56.53
2018-04-30T02:57:33.356Z,56.64
2018-04-30T02:59:59.157Z,56.60
2018-04-30T03:02:24.958Z,56.62
2018-04-30T03:04:51.620Z,56.42
2018-04-30T03:07:17.429Z,56.58
2018-04-30T03:09:43.406Z,56.71
2018-04-30T03:12:09.172Z,56.90
2018-04-30T03:14:34.968Z,56.53
2018-04-30T03:17:00.795Z,56.76
2018-04-30T03:19:26.588Z,56.61
2018-04-30T03:21:52.388Z,56.73
2018-04-30T03:24:18.189Z,56.51
2018-04-30T03:26:44.011Z,56.48
2018-04-30T03:29:09.813Z,56.82
2018-04-30T03:31:35.786Z,56.36
2018-04-30T03:34:01.675Z,56.66
2018-04-30T03:36:27.494Z,56.40
2018-04-30T03:38:53.445Z,56.42
2018-04-30T03:41:19.249Z,56.61
2018-04-30T03:43:45.049Z,56.66
2018-04-30T03:46:10.853Z,56.86
2018-04-30T03:48:37.507Z,56.90
2018-04-30T03:51:03.309Z,57.05
2018-04-30T03:53:29.152Z,56.86
2018-04-30T03:55:55.899Z,56.70
2018-04-30T03:58:21.695Z,57.08
2018-04-30T04:00:53.721Z,57.05
2018-04-30T04:03:25.787Z,57.20
2018-04-30T04:05:57.800Z,57.00
2018-04-30T04:08:24.552Z,57.30
2018-04-30T04:10:50.504Z,56.63
2018-04-30T04:13:17.132Z,57.17
2018-04-30T04:15:42.964Z,57.05
2018-04-30T04:18:08.774Z,57.22
2018-04-30T04:20:34.605Z,57.02
2018-04-30T04:23:01.452Z,57.17
2018-04-30T04:25:28.164Z,57.43
2018-04-30T04:27:53.998Z,57.06
2018-04-30T04:30:19.828Z,57.16
2018-04-30T04:32:45.690Z,56.71
2018-04-30T04:35:12.433Z,57.17
2018-04-30T04:37:39.264Z,57.46
2018-04-30T04:40:06.065Z,56.83
2018-04-30T04:42:32.932Z,57.06
2018-04-30T04:44:59.593Z,57.45
2018-04-30T04:47:26.369Z,57.33
2018-04-30T04:49:53.092Z,57.65
2018-04-30T04:52:18.893Z,57.17
2018-04-30T04:54:44.688Z,57.05
2018-04-30T04:57:10.519Z,57.49
2018-04-30T04:59:36.316Z,57.37
2018-04-30T05:02:02.148Z,57.24
2018-04-30T05:04:27.983Z,57.17
2018-04-30T05:06:53.812Z,57.12
2018-04-30T05:09:19.636Z,57.64
2018-04-30T05:11:45.468Z,57.62
2018-04-30T05:14:12.085Z,57.12
2018-04-30T05:16:37.910Z,56.65
2018-04-30T05:19:03.701Z,57.55
2018-04-30T05:21:29.501Z,57.39
2018-04-30T05:23:55.315Z,57.25
2018-04-30T05:26:21.136Z,57.18
2018-04-30T05:28:46.940Z,57.17
2018-04-30T05:31:12.749Z,57.21
2018-04-30T05:33:38.560Z,57.15
2018-04-30T05:36:04.516Z,57.17
2018-04-30T05:38:30.312Z,57.11
2018-04-30T05:40:57.032Z,57.00
2018-04-30T05:43:22.820Z,57.31
2018-04-30T05:45:48.621Z,57.19
2018-04-30T05:48:14.417Z,57.01
2018-04-30T05:50:40.224Z,56.97
2018-04-30T05:53:06.045Z,56.34
2018-04-30T05:55:31.844Z,55.96
2018-04-30T05:57:57.644Z,55.72
2018-04-30T06:00:23.446Z,55.42
2018-04-30T06:02:49.351Z,55.18
2018-04-30T06:05:15.149Z,55.05
2018-04-30T06:07:40.945Z,54.91
2018-04-30T06:10:06.743Z,54.83
2018-04-30T06:12:32.539Z,54.77
2018-04-30T06:14:58.341Z,54.86
2018-04-30T06:17:24.148Z,54.81
2018-04-30T06:19:50.189Z,54.77
2018-04-30T06:22:15.984Z,54.85
2018-04-30T06:24:41.784Z,54.83
2018-04-30T06:27:07.589Z,54.94
2018-04-30T06:29:33.420Z,54.95
2018-04-30T06:31:59.328Z,54.92
2018-04-30T06:34:25.142Z,54.97
2018-04-30T06:36:50.936Z,54.93
2018-04-30T06:39:16.733Z,54.91
2018-04-30T06:41:42.556Z,55.03
2018-04-30T06:44:08.358Z,55.08
2018-04-30T06:46:34.272Z,55.03
2018-04-30T06:49:00.072Z,55.33
2018-04-30T06:51:25.901Z,55.06
2018-04-30T06:53:52.503Z,55.18
2018-04-30T06:56:18.323Z,55.16
2018-04-30T06:58:44.745Z,55.31
2018-04-30T07:01:10.597Z,55.29
2018-04-30T07:03:36.424Z,55.27
2018-04-30T07:06:02.217Z,55.20
2018-04-30T07:08:28.013Z,55.33
2018-04-30T07:10:54.592Z,55.33
2018-04-30T07:13:20.412Z,55.36
2018-04-30T07:15:47.113Z,55.37
2018-04-30T07:18:13.768Z,55.35
2018-04-30T07:20:40.540Z,55.39
2018-04-30T07:23:07.274Z,55.36
2018-04-30T07:25:34.179Z,56.07
2018-04-30T07:27:59.971Z,55.57
2018-04-30T07:30:26.678Z,55.55
2018-04-30T07:32:52.481Z,55.54
2018-04-30T07:35:18.422Z,55.61
2018-04-30T07:37:44.224Z,55.62
2018-04-30T07:40:10.036Z,55.68
2018-04-30T07:42:35.863Z,55.71
2018-04-30T07:45:01.661Z,55.73
2018-04-30T07:47:27.521Z,55.73
2018-04-30T07:49:54.280Z,55.74
2018-04-30T07:52:20.085Z,55.87
2018-04-30T07:54:46.787Z,55.72
2018-04-30T07:57:12.963Z,55.89
2018-04-30T07:59:39.616Z,55.91
2018-04-30T08:02:06.340Z,56.04
2018-04-30T08:04:33.174Z,56.07
2018-04-30T08:06:59.808Z,55.99
2018-04-30T08:09:26.544Z,56.09
2018-04-30T08:11:52.349Z,56.11
2018-04-30T08:14:18.172Z,56.10
2018-04-30T08:16:44.014Z,56.20
2018-04-30T08:19:09.813Z,56.21
2018-04-30T08:21:35.643Z,56.25
2018-04-30T08:24:01.480Z,56.14
2018-04-30T08:26:27.316Z,56.24
2018-04-30T08:28:53.111Z,56.28
2018-04-30T08:31:18.932Z,56.22
2018-04-30T08:33:44.793Z,56.32
2018-04-30T08:36:10.602Z,56.23
2018-04-30T08:38:37.410Z,56.28
2018-04-30T08:41:04.260Z,56.27
2018-04-30T08:43:30.182Z,56.30
2018-04-30T08:45:56.002Z,56.23
2018-04-30T08:48:21.804Z,56.42
2018-04-30T08:50:47.750Z,56.31
2018-04-30T08:53:13.556Z,56.35
2018-04-30T08:55:39.364Z,56.43
2018-04-30T08:58:05.156Z,56.32
2018-04-30T09:00:31.113Z,56.31
2018-04-30T09:02:56.860Z,56.40
2018-04-30T09:05:22.684Z,56.46
2018-04-30T09:07:48.487Z,56.43
2018-04-30T09:10:14.507Z,56.40
2018-04-30T09:12:41.149Z,56.44
2018-04-30T09:15:07.910Z,56.48
2018-04-30T09:17:33.740Z,56.56
2018-04-30T09:19:59.812Z,56.48
2018-04-30T09:22:26.603Z,56.54
2018-04-30T09:24:52.409Z,56.50
2018-04-30T09:27:18.218Z,56.89
2018-04-30T09:29:44.022Z,57.36
2018-04-30T09:32:09.837Z,57.19
2018-04-30T09:34:35.641Z,56.91
2018-04-30T09:37:01.445Z,57.14
2018-04-30T09:39:27.275Z,57.27
2018-04-30T09:41:53.084Z,57.21
2018-04-30T09:44:18.955Z,57.60
2018-04-30T09:46:44.752Z,57.29
2018-04-30T09:49:11.220Z,56.91
2018-04-30T09:51:37.033Z,57.08
2018-04-30T09:54:04.496Z,57.67
2018-04-30T09:56:30.356Z,57.55
2018-04-30T09:58:56.135Z,57.82
2018-04-30T10:01:21.941Z,57.41
2018-04-30T10:03:48.588Z,57.88
2018-04-30T10:06:14.412Z,57.49
2018-04-30T10:08:40.227Z,57.71
2018-04-30T10:11:06.027Z,58.45
2018-04-30T10:13:31.829Z,57.40
2018-04-30T10:15:57.669Z,57.54
2018-04-30T10:18:23.461Z,57.52
2018-04-30T10:20:49.276Z,57.95
2018-04-30T10:23:15.084Z,58.21
2018-04-30T10:25:40.969Z,57.67
2018-04-30T10:28:06.720Z,58.19
2018-04-30T10:30:32.520Z,59.41
2018-04-30T10:32:58.323Z,58.66
2018-04-30T10:35:24.120Z,58.18
2018-04-30T10:37:49.929Z,58.63
2018-04-30T10:40:15.791Z,57.71
2018-04-30T10:42:41.621Z,57.83
2018-04-30T10:45:07.432Z,58.77
2018-04-30T10:47:33.233Z,58.48
2018-04-30T10:50:00.004Z,57.25
2018-04-30T10:52:25.891Z,57.73
2018-04-30T10:54:51.696Z,57.63
2018-04-30T10:57:17.496Z,57.49
2018-04-30T10:59:43.363Z,57.54
2018-04-30T11:02:09.164Z,57.27
2018-04-30T11:04:34.984Z,57.63
2018-04-30T11:07:00.804Z,57.61
2018-04-30T11:09:27.003Z,57.52
2018-04-30T11:11:52.824Z,57.44
2018-04-30T11:14:18.636Z,57.11
2018-04-30T11:16:45.435Z,57.36
2018-04-30T11:19:11.276Z,57.61
2018-04-30T11:21:38.104Z,57.78
2018-04-30T11:24:03.915Z,57.63
2018-04-30T11:26:29.717Z,57.62
2018-04-30T11:28:56.349Z,57.41
2018-04-30T11:31:22.225Z,58.20
2018-04-30T11:33:48.024Z,57.61
2018-04-30T11:36:13.842Z,57.66
2018-04-30T11:38:39.652Z,57.57
2018-04-30T11:41:05.513Z,57.45
2018-04-30T11:43:31.334Z,57.43
2018-04-30T11:45:57.256Z,57.36
2018-04-30T11:48:23.076Z,57.52
2018-04-30T11:50:48.893Z,57.76
2018-04-30T11:53:14.711Z,57.33
2018-04-30T11:55:40.563Z,57.22
2018-04-30T11:58:06.385Z,57.69
2018-04-30T12:00:32.188Z,57.32
2018-04-30T12:02:58.025Z,57.33
2018-04-30T12:05:23.881Z,57.62
2018-04-30T12:07:49.715Z,57.22
2018-04-30T12:10:15.549Z,57.48
2018-04-30T12:12:41.404Z,57.42
2018-04-30T12:15:07.212Z,57.51
2018-04-30T12:17:33.081Z,57.67
2018-04-30T12:19:58.897Z,57.75
2018-04-30T12:22:24.708Z,57.06
2018-04-30T12:24:51.487Z,57.13
2018-04-30T12:27:17.432Z,57.36
2018-04-30T12:29:43.417Z,57.46
2018-04-30T12:32:09.180Z,57.19
2018-04-30T12:34:34.996Z,57.47
2018-04-30T12:37:01.581Z,57.34
2018-04-30T12:39:28.126Z,57.18
2018-04-30T12:41:56.440Z,57.18
2018-04-30T12:44:23.775Z,57.37
2018-04-30T12:46:49.996Z,57.28
2018-04-30T12:49:17.237Z,57.57
2018-04-30T12:51:43.572Z,57.18
2018-04-30T12:54:09.701Z,57.08
2018-04-30T12:56:36.247Z,57.16
2018-04-30T12:59:02.603Z,57.26
2018-04-30T13:01:28.424Z,57.47
2018-04-30T13:03:54.247Z,57.15
2018-04-30T13:06:20.053Z,57.38
2018-04-30T13:08:45.871Z,57.48
2018-04-30T13:11:11.705Z,57.35
2018-04-30T13:13:37.519Z,57.56
2018-04-30T13:16:03.336Z,57.45
2018-04-30T13:18:29.144Z,57.42
2018-04-30T13:20:55.041Z,57.39
2018-04-30T13:23:21.840Z,57.36
2018-04-30T13:25:48.548Z,57.64
2018-04-30T13:28:14.348Z,57.25
2018-04-30T13:30:40.236Z,57.26
2018-04-30T13:33:06.068Z,57.25
2018-04-30T13:35:31.862Z,57.41
2018-04-30T13:37:57.728Z,57.39
2018-04-30T13:40:23.529Z,57.28
2018-04-30T13:42:49.336Z,57.30
2018-04-30T13:45:15.154Z,57.33
2018-04-30T13:47:40.960Z,57.36
2018-04-30T13:50:07.681Z,57.44
2018-04-30T13:52:33.484Z,57.76
2018-04-30T13:54:59.284Z,57.68
2018-04-30T13:57:25.084Z,57.30
2018-04-30T13:59:50.877Z,56.89
2018-04-30T14:02:16.701Z,56.90
2018-04-30T14:04:42.546Z,57.01
2018-04-30T14:07:08.357Z,57.01
2018-04-30T14:09:34.185Z,57.08
2018-04-30T14:12:00.034Z,56.92
2018-04-30T14:14:26.796Z,57.07
2018-04-30T14:16:52.600Z,57.14
2018-04-30T14:19:18.405Z,57.01
2018-04-30T14:21:45.179Z,57.47
2018-04-30T14:24:11.944Z,57.25
2018-04-30T14:26:37.746Z,57.61
2018-04-30T14:29:04.533Z,57.24
2018-04-30T14:31:30.336Z,57.29
2018-04-30T14:33:56.196Z,57.10
2018-04-30T14:36:22.040Z,57.17
2018-04-30T14:38:48.820Z,57.07
2018-04-30T14:41:15.594Z,57.03
2018-04-30T14:43:41.577Z,57.23
2018-04-30T14:46:07.388Z,57.25
2018-04-30T14:48:33.259Z,57.20
2018-04-30T14:50:59.980Z,57.15
2018-04-30T14:53:25.771Z,57.13
2018-04-30T14:55:51.577Z,57.60
2018-04-30T14:58:17.408Z,57.27
2018-04-30T15:00:43.285Z,57.32
2018-04-30T15:03:10.112Z,57.08
2018-04-30T15:05:35.908Z,57.24
2018-04-30T15:08:01.739Z,57.26
2018-04-30T15:10:27.583Z,57.09
2018-04-30T15:12:54.276Z,57.29
2018-04-30T15:15:20.077Z,57.20
2018-04-30T15:17:45.876Z,57.09
2018-04-30T15:20:11.712Z,57.08
2018-04-30T15:22:37.554Z,57.08
2018-04-30T15:25:04.903Z,57.00
2018-04-30T15:27:30.748Z,56.73
2018-04-30T15:29:56.704Z,56.37
2018-04-30T15:32:22.499Z,55.80
2018-04-30T15:34:48.305Z,55.55
2018-04-30T15:37:14.373Z,55.48
2018-04-30T15:39:40.189Z,55.14
2018-04-30T15:42:06.062Z,54.67
2018-04-30T15:44:32.462Z,54.49
2018-04-30T15:46:58.265Z,54.37
2018-04-30T15:49:25.139Z,53.70
2018-04-30T15:51:50.908Z,54.16
2018-04-30T15:54:17.082Z,54.09
2018-04-30T15:56:43.317Z,54.30
2018-04-30T15:59:09.922Z,54.02
2018-04-30T16:01:35.739Z,54.23
2018-04-30T16:04:01.545Z,54.23
2018-04-30T16:06:28.312Z,54.42
2018-04-30T16:08:55.105Z,54.55
2018-04-30T16:11:20.944Z,54.58
2018-04-30T16:13:46.755Z,54.59
2018-04-30T16:16:13.391Z,54.70
2018-04-30T16:18:39.201Z,54.68
2018-04-30T16:21:04.999Z,54.41
2018-04-30T16:23:30.883Z,53.92
2018-04-30T16:25:56.701Z,54.57
2018-04-30T16:28:23.472Z,54.66
2018-04-30T16:30:50.204Z,54.59
2018-04-30T16:33:15.999Z,54.79
2018-04-30T16:35:41.807Z,54.84
2018-04-30T16:38:07.624Z,54.77
2018-04-30T16:40:33.416Z,54.92
2018-04-30T16:43:00.164Z,54.98
2018-04-30T16:45:25.964Z,55.09
2018-04-30T16:47:51.764Z,55.15
2018-04-30T16:50:17.591Z,55.26
2018-04-30T16:52:43.488Z,55.08
2018-04-30T16:55:09.373Z,54.75
2018-04-30T16:57:35.364Z,55.31
2018-04-30T17:00:09.260Z,55.16
2018-04-30T17:02:35.316Z,55.48
2018-04-30T17:05:01.117Z,55.52
2018-04-30T17:07:28.040Z,55.21
2018-04-30T17:09:53.842Z,55.32
2018-04-30T17:12:20.509Z,55.16
2018-04-30T17:14:46.314Z,55.54
2018-04-30T17:17:12.241Z,55.37
2018-04-30T17:19:38.040Z,55.31
2018-04-30T17:22:03.983Z,55.38
2018-04-30T17:24:29.792Z,55.40
2018-04-30T17:26:55.600Z,55.40
2018-04-30T17:29:21.409Z,55.32
2018-04-30T17:31:47.209Z,55.46
2018-04-30T17:34:13.013Z,55.38
2018-04-30T17:36:38.844Z,55.44
2018-04-30T17:39:04.660Z,55.45
2018-04-30T17:41:30.501Z,55.48
2018-04-30T17:43:56.310Z,55.40
2018-04-30T17:46:22.113Z,55.51
2018-04-30T17:48:47.918Z,55.56
2018-04-30T17:51:13.724Z,55.57
2018-04-30T17:53:39.527Z,55.58
2018-04-30T17:56:05.329Z,55.58
2018-04-30T17:58:31.178Z,55.53
2018-04-30T18:00:56.986Z,55.62
2018-04-30T18:03:22.950Z,55.52
2018-04-30T18:05:48.796Z,55.80
2018-04-30T18:08:15.473Z,55.65
2018-04-30T18:10:41.404Z,55.69
2018-04-30T18:13:07.225Z,55.61
2018-04-30T18:15:33.055Z,55.51
2018-04-30T18:17:58.881Z,55.62
2018-04-30T18:20:26.850Z,55.52
2018-04-30T18:22:55.932Z,55.73
2018-04-30T18:25:21.869Z,55.95
2018-04-30T18:27:47.874Z,55.87
2018-04-30T18:30:13.713Z,56.02
2018-04-30T18:32:39.512Z,55.86
2018-04-30T18:35:06.253Z,55.66
2018-04-30T18:37:32.063Z,55.30
2018-04-30T18:39:57.863Z,54.74
2018-04-30T18:42:23.747Z,54.15
2018-04-30T18:44:50.548Z,52.89
2018-04-30T18:47:16.441Z,54.49
2018-04-30T18:49:42.284Z,54.29
2018-04-30T18:52:08.084Z,54.24
2018-04-30T18:54:33.923Z,54.16
2018-04-30T18:56:59.731Z,53.17
2018-04-30T18:59:25.636Z,53.64
2018-04-30T19:01:51.472Z,53.40
2018-04-30T19:04:17.268Z,53.37
2018-04-30T19:06:43.131Z,53.76
2018-04-30T19:09:08.933Z,53.60
2018-04-30T19:11:34.880Z,53.81
2018-04-30T19:14:00.695Z,53.46
2018-04-30T19:16:26.501Z,54.16
2018-04-30T19:18:52.309Z,53.73
2018-04-30T19:21:18.120Z,53.18
2018-04-30T19:23:43.925Z,53.96
2018-04-30T19:26:09.733Z,53.76
2018-04-30T19:28:35.719Z,53.90
2018-04-30T19:31:01.638Z,53.82
2018-04-30T19:33:27.441Z,53.78
2018-04-30T19:35:54.816Z,54.29
2018-04-30T19:38:21.861Z,54.24
2018-04-30T19:40:47.821Z,54.26
2018-04-30T19:43:13.624Z,54.40
2018-04-30T19:45:39.432Z,54.27
2018-04-30T19:48:05.255Z,54.59
2018-04-30T19:50:32.020Z,54.49
2018-04-30T19:52:57.867Z,54.15
2018-04-30T19:55:23.692Z,54.37
2018-04-30T19:57:49.496Z,55.05
2018-04-30T20:00:15.338Z,54.84
2018-04-30T20:02:41.153Z,54.83
2018-04-30T20:05:06.957Z,55.09
2018-04-30T20:07:32.761Z,55.14
2018-04-30T20:09:58.646Z,53.85
2018-04-30T20:12:31.453Z,55.40
2018-04-30T20:14:57.260Z,55.55
2018-04-30T20:17:23.093Z,55.70
2018-04-30T20:19:48.896Z,56.10
2018-04-30T20:22:14.733Z,54.47
2018-04-30T20:24:40.540Z,55.02
2018-04-30T20:27:06.368Z,55.59
2018-04-30T20:29:32.204Z,55.99
2018-04-30T20:31:58.226Z,54.58
2018-04-30T20:34:24.077Z,55.62
2018-04-30T20:36:49.948Z,55.92
2018-04-30T20:39:15.840Z,54.81
2018-04-30T20:41:41.759Z,56.20
2018-04-30T20:44:08.391Z,55.97
2018-04-30T20:46:34.235Z,56.56
2018-04-30T20:49:01.014Z,56.35
2018-04-30T20:51:26.822Z,56.50
2018-04-30T20:53:52.624Z,55.74
2018-04-30T20:56:18.573Z,55.80
2018-04-30T20:58:45.392Z,55.75
2018-04-30T21:01:11.234Z,55.57
2018-04-30T21:03:37.072Z,55.51
2018-04-30T21:06:04.025Z,55.97
2018-04-30T21:08:35.944Z,56.11
2018-04-30T21:11:02.257Z,55.46
2018-04-30T21:13:28.065Z,55.51
2018-04-30T21:15:53.887Z,55.84
2018-04-30T21:18:19.721Z,54.46
2018-04-30T21:20:46.528Z,54.84
2018-04-30T21:23:12.365Z,56.06
2018-04-30T21:25:39.945Z,55.58
2018-04-30T21:28:06.697Z,54.69
2018-04-30T21:30:32.501Z,54.74
2018-04-30T21:32:58.308Z,55.76
2018-04-30T21:35:24.119Z,55.54
2018-04-30T21:37:50.825Z,55.68
2018-04-30T21:40:16.653Z,55.67
2018-04-30T21:42:42.460Z,54.65
2018-04-30T21:45:08.816Z,55.24
2018-04-30T21:47:34.724Z,55.67
2018-04-30T21:50:01.481Z,54.19
2018-04-30T21:52:27.290Z,54.94
2018-04-30T21:54:55.011Z,54.12
2018-04-30T21:57:21.653Z,54.58
2018-04-30T21:59:47.612Z,54.76
2018-04-30T22:02:13.449Z,53.33
2018-04-30T22:04:39.260Z,53.38
2018-04-30T22:07:05.067Z,54.94
2018-04-30T22:09:30.921Z,54.57
2018-04-30T22:11:57.595Z,55.18
2018-04-30T22:14:24.365Z,53.50
2018-04-30T22:16:50.209Z,53.39
2018-04-30T22:19:16.827Z,54.58
2018-04-30T22:21:43.569Z,54.65
2018-04-30T22:24:09.373Z,55.04
2018-04-30T22:26:35.307Z,54.86
2018-04-30T22:29:01.148Z,54.38
2018-04-30T22:31:26.940Z,54.11
2018-04-30T22:33:54.271Z,54.70
2018-04-30T22:36:27.984Z,53.82
2018-04-30T22:38:53.781Z,54.32
2018-04-30T22:41:19.777Z,54.53
2018-04-30T22:43:45.580Z,54.57
2018-04-30T22:46:11.386Z,54.23
2018-04-30T22:48:38.021Z,53.69
2018-04-30T22:51:04.883Z,54.09
2018-04-30T22:53:31.605Z,54.22
2018-04-30T22:55:57.412Z,53.40
2018-04-30T22:58:23.217Z,52.66
2018-04-30T23:00:49.043Z,53.89
2018-04-30T23:03:14.836Z,53.24
2018-04-30T23:05:40.641Z,53.23
2018-04-30T23:08:06.479Z,52.50
2018-04-30T23:10:33.196Z,53.42
2018-04-30T23:12:59.040Z,52.80
2018-04-30T23:15:24.844Z,53.52
2018-04-30T23:17:51.545Z,52.37
2018-04-30T23:20:17.466Z,52.98
2018-04-30T23:22:43.271Z,53.10
2018-04-30T23:25:09.076Z,53.24
2018-04-30T23:27:34.876Z,53.37
2018-04-30T23:30:00.680Z,52.94
2018-04-30T23:32:26.481Z,52.64
2018-04-30T23:34:52.935Z,52.26
2018-04-30T23:37:18.736Z,52.24
2018-04-30T23:39:44.641Z,51.99
2018-04-30T23:42:10.440Z,52.31
2018-04-30T23:44:36.231Z,52.27
2018-04-30T23:47:02.040Z,52.13
2018-04-30T23:49:28.683Z,51.84
2018-04-30T23:51:54.487Z,52.22
2018-04-30T23:54:21.221Z,52.11
2018-04-30T23:56:47.938Z,53.21
2018-04-30T23:59:13.748Z,52.42
